sensor_id;sensor_type;location;lat;lon;timestamp;P1;durP1;ratioP1;P2;durP2;ratioP2
8944;SDS011;4507;40.232;29.132;2023-08-06T00:00:08;32.10;;;20.37;;
8944;SDS011;4507;40.232;29.132;2023-08-06T00:02:40;29.40;;;20.50;;
8944;SDS011;4507;40.232;29.132;2023-08-06T00:05:09;35.93;;;20.83;;
8944;SDS011;4507;40.232;29.132;2023-08-06T00:07:38;30.80;;;21.17;;
8944;SDS011;4507;40.232;29.132;2023-08-06T00:10:07;28.50;;;21.50;;
8944;SDS011;4507;40.232;29.132;2023-08-06T00:12:37;35.87;;;23.10;;
8944;SDS011;4507;40.232;29.132;2023-08-06T00:15:08;29.43;;;22.23;;
8944;SDS011;4507;40.232;29.132;2023-08-06T00:17:40;35.03;;;23.33;;
8944;SDS011;4507;40.232;29.132;2023-08-06T00:20:11;36.73;;;23.07;;
8944;SDS011;4507;40.232;29.132;2023-08-06T00:22:41;31.47;;;22.33;;
8944;SDS011;4507;40.232;29.132;2023-08-06T00:25:10;34.53;;;21.93;;
8944;SDS011;4507;40.232;29.132;2023-08-06T00:27:38;31.63;;;21.17;;
8944;SDS011;4507;40.232;29.132;2023-08-06T00:30:09;34.70;;;22.30;;
8944;SDS011;4507;40.232;29.132;2023-08-06T00:40:50;28.53;;;21.07;;
8944;SDS011;4507;40.232;29.132;2023-08-06T00:43:20;27.87;;;21.23;;
8944;SDS011;4507;40.232;29.132;2023-08-06T00:45:50;28.13;;;21.90;;
8944;SDS011;4507;40.232;29.132;2023-08-06T00:48:19;31.73;;;22.33;;
8944;SDS011;4507;40.232;29.132;2023-08-06T00:51:02;29.87;;;22.37;;
8944;SDS011;4507;40.232;29.132;2023-08-06T00:53:31;31.53;;;22.90;;
8944;SDS011;4507;40.232;29.132;2023-08-06T00:56:00;24.67;;;22.03;;
8944;SDS011;4507;40.232;29.132;2023-08-06T00:58:30;28.77;;;23.53;;
8944;SDS011;4507;40.232;29.132;2023-08-06T01:04:19;30.83;;;22.90;;
8944;SDS011;4507;40.232;29.132;2023-08-06T01:06:48;31.33;;;23.33;;
8944;SDS011;4507;40.232;29.132;2023-08-06T01:09:50;31.30;;;22.90;;
8944;SDS011;4507;40.232;29.132;2023-08-06T01:12:30;27.97;;;23.13;;
8944;SDS011;4507;40.232;29.132;2023-08-06T01:15:11;29.90;;;23.97;;
8944;SDS011;4507;40.232;29.132;2023-08-06T01:17:44;32.60;;;24.53;;
8944;SDS011;4507;40.232;29.132;2023-08-06T01:20:18;31.67;;;24.70;;
8944;SDS011;4507;40.232;29.132;2023-08-06T01:25:40;27.77;;;22.97;;
8944;SDS011;4507;40.232;29.132;2023-08-06T01:28:15;25.87;;;22.60;;
8944;SDS011;4507;40.232;29.132;2023-08-06T01:30:51;28.07;;;23.27;;
8944;SDS011;4507;40.232;29.132;2023-08-06T01:33:22;30.63;;;23.33;;
8944;SDS011;4507;40.232;29.132;2023-08-06T01:35:52;25.60;;;23.07;;
8944;SDS011;4507;40.232;29.132;2023-08-06T01:38:25;34.97;;;23.13;;
8944;SDS011;4507;40.232;29.132;2023-08-06T01:41:00;29.83;;;23.10;;
8944;SDS011;4507;40.232;29.132;2023-08-06T01:46:48;29.83;;;22.87;;
8944;SDS011;4507;40.232;29.132;2023-08-06T01:49:17;25.60;;;22.40;;
8944;SDS011;4507;40.232;29.132;2023-08-06T01:51:49;26.73;;;23.43;;
8944;SDS011;4507;40.232;29.132;2023-08-06T01:58:42;27.03;;;24.10;;
8944;SDS011;4507;40.232;29.132;2023-08-06T02:01:14;29.50;;;23.40;;
8944;SDS011;4507;40.232;29.132;2023-08-06T02:03:45;26.93;;;23.03;;
8944;SDS011;4507;40.232;29.132;2023-08-06T02:06:14;26.30;;;23.50;;
8944;SDS011;4507;40.232;29.132;2023-08-06T02:08:44;31.43;;;23.57;;
8944;SDS011;4507;40.232;29.132;2023-08-06T02:11:16;24.67;;;22.00;;
8944;SDS011;4507;40.232;29.132;2023-08-06T02:13:47;29.33;;;22.80;;
8944;SDS011;4507;40.232;29.132;2023-08-06T02:16:18;27.37;;;21.97;;
8944;SDS011;4507;40.232;29.132;2023-08-06T02:18:49;31.63;;;23.77;;
8944;SDS011;4507;40.232;29.132;2023-08-06T02:21:18;28.37;;;23.20;;
8944;SDS011;4507;40.232;29.132;2023-08-06T02:23:47;27.33;;;22.90;;
8944;SDS011;4507;40.232;29.132;2023-08-06T02:26:16;26.47;;;23.13;;
8944;SDS011;4507;40.232;29.132;2023-08-06T02:28:46;28.97;;;23.93;;
8944;SDS011;4507;40.232;29.132;2023-08-06T02:31:16;41.07;;;27.43;;
8944;SDS011;4507;40.232;29.132;2023-08-06T02:33:47;35.57;;;27.23;;
8944;SDS011;4507;40.232;29.132;2023-08-06T02:36:16;39.33;;;29.77;;
8944;SDS011;4507;40.232;29.132;2023-08-06T02:38:45;36.67;;;29.40;;
8944;SDS011;4507;40.232;29.132;2023-08-06T02:41:18;42.07;;;30.80;;
8944;SDS011;4507;40.232;29.132;2023-08-06T02:43:58;54.40;;;49.43;;
8944;SDS011;4507;40.232;29.132;2023-08-06T02:46:27;38.67;;;29.00;;
8944;SDS011;4507;40.232;29.132;2023-08-06T02:48:56;32.17;;;28.70;;
8944;SDS011;4507;40.232;29.132;2023-08-06T02:51:25;38.77;;;28.73;;
8944;SDS011;4507;40.232;29.132;2023-08-06T02:53:54;33.53;;;29.77;;
8944;SDS011;4507;40.232;29.132;2023-08-06T02:56:22;33.97;;;27.13;;
8944;SDS011;4507;40.232;29.132;2023-08-06T02:59:06;37.80;;;25.47;;
8944;SDS011;4507;40.232;29.132;2023-08-06T03:01:58;32.60;;;24.97;;
8944;SDS011;4507;40.232;29.132;2023-08-06T03:04:36;34.57;;;25.47;;
8944;SDS011;4507;40.232;29.132;2023-08-06T03:07:07;40.77;;;24.73;;
8944;SDS011;4507;40.232;29.132;2023-08-06T03:09:47;32.17;;;25.07;;
8944;SDS011;4507;40.232;29.132;2023-08-06T03:12:17;28.00;;;23.27;;
8944;SDS011;4507;40.232;29.132;2023-08-06T03:14:49;30.53;;;24.07;;
8944;SDS011;4507;40.232;29.132;2023-08-06T03:17:18;33.47;;;23.70;;
8944;SDS011;4507;40.232;29.132;2023-08-06T03:19:47;34.20;;;24.33;;
8944;SDS011;4507;40.232;29.132;2023-08-06T03:22:17;32.10;;;24.17;;
8944;SDS011;4507;40.232;29.132;2023-08-06T03:24:49;29.33;;;23.30;;
8944;SDS011;4507;40.232;29.132;2023-08-06T03:27:21;33.83;;;24.80;;
8944;SDS011;4507;40.232;29.132;2023-08-06T03:29:53;37.63;;;24.67;;
8944;SDS011;4507;40.232;29.132;2023-08-06T03:32:25;43.13;;;24.47;;
8944;SDS011;4507;40.232;29.132;2023-08-06T03:34:55;42.33;;;24.73;;
8944;SDS011;4507;40.232;29.132;2023-08-06T03:37:27;46.73;;;24.40;;
8944;SDS011;4507;40.232;29.132;2023-08-06T03:39:56;39.87;;;23.80;;
8944;SDS011;4507;40.232;29.132;2023-08-06T03:42:25;38.20;;;24.70;;
8944;SDS011;4507;40.232;29.132;2023-08-06T03:44:56;48.07;;;26.30;;
8944;SDS011;4507;40.232;29.132;2023-08-06T03:47:25;64.60;;;27.70;;
8944;SDS011;4507;40.232;29.132;2023-08-06T03:53:45;45.50;;;26.17;;
8944;SDS011;4507;40.232;29.132;2023-08-06T03:59:40;44.67;;;25.67;;
8944;SDS011;4507;40.232;29.132;2023-08-06T04:02:39;33.20;;;27.43;;
8944;SDS011;4507;40.232;29.132;2023-08-06T04:05:11;36.57;;;26.90;;
8944;SDS011;4507;40.232;29.132;2023-08-06T04:07:41;56.20;;;28.60;;
8944;SDS011;4507;40.232;29.132;2023-08-06T04:10:10;54.80;;;30.53;;
8944;SDS011;4507;40.232;29.132;2023-08-06T04:12:39;52.77;;;27.97;;
8944;SDS011;4507;40.232;29.132;2023-08-06T04:15:27;54.57;;;32.57;;
8944;SDS011;4507;40.232;29.132;2023-08-06T04:17:58;44.57;;;27.60;;
8944;SDS011;4507;40.232;29.132;2023-08-06T04:20:27;44.57;;;26.17;;
8944;SDS011;4507;40.232;29.132;2023-08-06T04:22:56;53.80;;;26.10;;
8944;SDS011;4507;40.232;29.132;2023-08-06T04:25:25;52.87;;;26.33;;
8944;SDS011;4507;40.232;29.132;2023-08-06T04:27:54;49.10;;;26.53;;
8944;SDS011;4507;40.232;29.132;2023-08-06T04:30:26;35.97;;;24.83;;
8944;SDS011;4507;40.232;29.132;2023-08-06T04:32:57;62.43;;;26.00;;
8944;SDS011;4507;40.232;29.132;2023-08-06T04:35:27;44.27;;;25.33;;
8944;SDS011;4507;40.232;29.132;2023-08-06T04:38:02;51.07;;;26.40;;
8944;SDS011;4507;40.232;29.132;2023-08-06T04:40:32;34.80;;;25.47;;
8944;SDS011;4507;40.232;29.132;2023-08-06T04:43:02;45.67;;;26.47;;
8944;SDS011;4507;40.232;29.132;2023-08-06T04:45:33;50.47;;;27.07;;
8944;SDS011;4507;40.232;29.132;2023-08-06T04:48:04;46.77;;;25.20;;
8944;SDS011;4507;40.232;29.132;2023-08-06T04:50:33;47.13;;;26.00;;
8944;SDS011;4507;40.232;29.132;2023-08-06T04:53:02;50.33;;;27.20;;
8944;SDS011;4507;40.232;29.132;2023-08-06T04:55:31;43.30;;;25.80;;
8944;SDS011;4507;40.232;29.132;2023-08-06T04:58:00;43.87;;;25.43;;
8944;SDS011;4507;40.232;29.132;2023-08-06T05:00:29;49.53;;;28.27;;
8944;SDS011;4507;40.232;29.132;2023-08-06T05:03:01;56.67;;;28.73;;
8944;SDS011;4507;40.232;29.132;2023-08-06T05:05:34;56.53;;;29.40;;
8944;SDS011;4507;40.232;29.132;2023-08-06T05:08:03;46.63;;;29.10;;
8944;SDS011;4507;40.232;29.132;2023-08-06T05:10:32;42.80;;;28.47;;
8944;SDS011;4507;40.232;29.132;2023-08-06T05:13:01;42.27;;;28.23;;
8944;SDS011;4507;40.232;29.132;2023-08-06T05:15:30;54.77;;;29.13;;
8944;SDS011;4507;40.232;29.132;2023-08-06T05:18:00;41.20;;;28.80;;
8944;SDS011;4507;40.232;29.132;2023-08-06T05:20:30;41.33;;;26.33;;
8944;SDS011;4507;40.232;29.132;2023-08-06T05:22:59;49.80;;;27.73;;
8944;SDS011;4507;40.232;29.132;2023-08-06T05:25:28;37.37;;;26.33;;
8944;SDS011;4507;40.232;29.132;2023-08-06T05:27:57;42.60;;;26.60;;
8944;SDS011;4507;40.232;29.132;2023-08-06T05:30:28;37.27;;;24.03;;
8944;SDS011;4507;40.232;29.132;2023-08-06T05:32:57;37.17;;;25.20;;
8944;SDS011;4507;40.232;29.132;2023-08-06T05:35:26;35.83;;;24.17;;
8944;SDS011;4507;40.232;29.132;2023-08-06T05:37:57;36.47;;;24.50;;
8944;SDS011;4507;40.232;29.132;2023-08-06T05:40:26;35.17;;;24.20;;
8944;SDS011;4507;40.232;29.132;2023-08-06T05:42:55;30.67;;;22.97;;
8944;SDS011;4507;40.232;29.132;2023-08-06T05:45:24;35.33;;;22.37;;
8944;SDS011;4507;40.232;29.132;2023-08-06T05:47:54;28.47;;;21.20;;
8944;SDS011;4507;40.232;29.132;2023-08-06T05:50:27;28.73;;;21.50;;
8944;SDS011;4507;40.232;29.132;2023-08-06T05:53:03;33.60;;;21.00;;
8944;SDS011;4507;40.232;29.132;2023-08-06T05:55:32;28.50;;;21.87;;
8944;SDS011;4507;40.232;29.132;2023-08-06T05:58:02;29.53;;;21.10;;
8944;SDS011;4507;40.232;29.132;2023-08-06T06:00:31;35.63;;;21.07;;
8944;SDS011;4507;40.232;29.132;2023-08-06T06:03:00;28.67;;;22.07;;
8944;SDS011;4507;40.232;29.132;2023-08-06T06:05:29;35.77;;;23.07;;
8944;SDS011;4507;40.232;29.132;2023-08-06T06:07:58;39.93;;;23.33;;
8944;SDS011;4507;40.232;29.132;2023-08-06T06:10:29;31.30;;;24.03;;
8944;SDS011;4507;40.232;29.132;2023-08-06T06:12:58;29.60;;;24.10;;
8944;SDS011;4507;40.232;29.132;2023-08-06T06:15:29;40.20;;;24.27;;
8944;SDS011;4507;40.232;29.132;2023-08-06T06:18:45;33.00;;;23.43;;
8944;SDS011;4507;40.232;29.132;2023-08-06T06:21:14;31.00;;;23.90;;
8944;SDS011;4507;40.232;29.132;2023-08-06T06:23:43;30.53;;;23.30;;
8944;SDS011;4507;40.232;29.132;2023-08-06T06:30:13;34.73;;;22.87;;
8944;SDS011;4507;40.232;29.132;2023-08-06T06:32:45;33.00;;;24.47;;
8944;SDS011;4507;40.232;29.132;2023-08-06T06:35:14;33.97;;;25.30;;
8944;SDS011;4507;40.232;29.132;2023-08-06T06:37:44;31.73;;;23.77;;
8944;SDS011;4507;40.232;29.132;2023-08-06T06:43:01;31.07;;;23.63;;
8944;SDS011;4507;40.232;29.132;2023-08-06T06:45:34;39.07;;;25.37;;
8944;SDS011;4507;40.232;29.132;2023-08-06T06:48:04;35.77;;;23.47;;
8944;SDS011;4507;40.232;29.132;2023-08-06T06:50:33;28.87;;;22.83;;
8944;SDS011;4507;40.232;29.132;2023-08-06T06:53:07;36.30;;;24.47;;
8944;SDS011;4507;40.232;29.132;2023-08-06T06:55:36;31.90;;;24.07;;
8944;SDS011;4507;40.232;29.132;2023-08-06T06:58:05;42.87;;;23.87;;
8944;SDS011;4507;40.232;29.132;2023-08-06T07:07:40;46.13;;;22.87;;
8944;SDS011;4507;40.232;29.132;2023-08-06T07:10:10;32.93;;;22.63;;
8944;SDS011;4507;40.232;29.132;2023-08-06T07:13:25;35.50;;;21.37;;
8944;SDS011;4507;40.232;29.132;2023-08-06T07:15:57;31.27;;;21.63;;
8944;SDS011;4507;40.232;29.132;2023-08-06T07:18:38;45.63;;;22.27;;
8944;SDS011;4507;40.232;29.132;2023-08-06T07:21:24;39.03;;;21.57;;
8944;SDS011;4507;40.232;29.132;2023-08-06T07:23:54;31.33;;;20.63;;
8944;SDS011;4507;40.232;29.132;2023-08-06T07:26:23;33.63;;;21.10;;
8944;SDS011;4507;40.232;29.132;2023-08-06T07:28:52;34.73;;;21.67;;
8944;SDS011;4507;40.232;29.132;2023-08-06T07:35:20;37.37;;;19.97;;
8944;SDS011;4507;40.232;29.132;2023-08-06T07:37:52;27.30;;;17.33;;
8944;SDS011;4507;40.232;29.132;2023-08-06T07:40:22;27.73;;;17.50;;
8944;SDS011;4507;40.232;29.132;2023-08-06T07:42:51;24.73;;;17.37;;
8944;SDS011;4507;40.232;29.132;2023-08-06T07:45:19;32.43;;;17.27;;
8944;SDS011;4507;40.232;29.132;2023-08-06T07:47:48;31.73;;;16.63;;
8944;SDS011;4507;40.232;29.132;2023-08-06T07:50:18;22.43;;;15.80;;
8944;SDS011;4507;40.232;29.132;2023-08-06T07:52:47;27.83;;;15.63;;
8944;SDS011;4507;40.232;29.132;2023-08-06T07:55:17;18.97;;;14.90;;
8944;SDS011;4507;40.232;29.132;2023-08-06T07:57:49;28.60;;;15.17;;
8944;SDS011;4507;40.232;29.132;2023-08-06T08:00:21;29.30;;;15.33;;
8944;SDS011;4507;40.232;29.132;2023-08-06T08:02:55;23.93;;;14.97;;
8944;SDS011;4507;40.232;29.132;2023-08-06T08:05:24;20.80;;;13.83;;
8944;SDS011;4507;40.232;29.132;2023-08-06T08:11:57;29.97;;;15.17;;
8944;SDS011;4507;40.232;29.132;2023-08-06T08:14:27;19.67;;;14.67;;
8944;SDS011;4507;40.232;29.132;2023-08-06T08:20:47;25.13;;;14.97;;
8944;SDS011;4507;40.232;29.132;2023-08-06T08:23:16;25.03;;;15.67;;
8944;SDS011;4507;40.232;29.132;2023-08-06T08:25:45;24.33;;;15.70;;
8944;SDS011;4507;40.232;29.132;2023-08-06T08:28:15;26.33;;;15.83;;
8944;SDS011;4507;40.232;29.132;2023-08-06T08:30:44;24.87;;;16.07;;
8944;SDS011;4507;40.232;29.132;2023-08-06T08:33:13;24.20;;;15.60;;
8944;SDS011;4507;40.232;29.132;2023-08-06T08:43:05;30.53;;;16.00;;
8944;SDS011;4507;40.232;29.132;2023-08-06T08:45:36;39.57;;;15.63;;
8944;SDS011;4507;40.232;29.132;2023-08-06T08:48:08;30.00;;;14.07;;
8944;SDS011;4507;40.232;29.132;2023-08-06T08:50:40;18.33;;;11.37;;
8944;SDS011;4507;40.232;29.132;2023-08-06T08:53:11;28.30;;;12.30;;
8944;SDS011;4507;40.232;29.132;2023-08-06T08:55:42;24.60;;;10.53;;
8944;SDS011;4507;40.232;29.132;2023-08-06T08:58:12;22.77;;;11.70;;
8944;SDS011;4507;40.232;29.132;2023-08-06T09:00:46;18.13;;;10.53;;
8944;SDS011;4507;40.232;29.132;2023-08-06T09:03:19;14.17;;;9.63;;
8944;SDS011;4507;40.232;29.132;2023-08-06T09:05:49;14.23;;;7.70;;
8944;SDS011;4507;40.232;29.132;2023-08-06T09:08:23;13.13;;;6.80;;
8944;SDS011;4507;40.232;29.132;2023-08-06T09:10:55;12.73;;;6.93;;
8944;SDS011;4507;40.232;29.132;2023-08-06T09:13:25;20.67;;;6.63;;
8944;SDS011;4507;40.232;29.132;2023-08-06T09:15:55;16.42;;;6.30;;
8944;SDS011;4507;40.232;29.132;2023-08-06T09:18:28;20.05;;;6.25;;
8944;SDS011;4507;40.232;29.132;2023-08-06T09:20:58;19.65;;;5.78;;
8944;SDS011;4507;40.232;29.132;2023-08-06T09:23:28;9.63;;;5.40;;
8944;SDS011;4507;40.232;29.132;2023-08-06T09:26:04;9.80;;;4.82;;
8944;SDS011;4507;40.232;29.132;2023-08-06T09:28:39;28.15;;;5.45;;
8944;SDS011;4507;40.232;29.132;2023-08-06T09:31:12;13.13;;;5.28;;
8944;SDS011;4507;40.232;29.132;2023-08-06T09:37:42;17.23;;;5.35;;
8944;SDS011;4507;40.232;29.132;2023-08-06T09:40:28;18.45;;;5.00;;
8944;SDS011;4507;40.232;29.132;2023-08-06T09:47:00;21.75;;;5.65;;
8944;SDS011;4507;40.232;29.132;2023-08-06T09:49:40;23.92;;;5.68;;
8944;SDS011;4507;40.232;29.132;2023-08-06T09:52:12;18.33;;;5.20;;
8944;SDS011;4507;40.232;29.132;2023-08-06T09:58:11;19.90;;;5.45;;
8944;SDS011;4507;40.232;29.132;2023-08-06T10:00:41;12.60;;;4.40;;
8944;SDS011;4507;40.232;29.132;2023-08-06T10:03:12;15.18;;;4.18;;
8944;SDS011;4507;40.232;29.132;2023-08-06T10:05:42;23.08;;;5.25;;
8944;SDS011;4507;40.232;29.132;2023-08-06T10:08:15;14.60;;;4.68;;
8944;SDS011;4507;40.232;29.132;2023-08-06T10:10:44;16.15;;;4.32;;
8944;SDS011;4507;40.232;29.132;2023-08-06T10:13:13;105.30;;;7.50;;
8944;SDS011;4507;40.232;29.132;2023-08-06T10:15:44;37.35;;;5.75;;
8944;SDS011;4507;40.232;29.132;2023-08-06T10:18:14;33.42;;;6.15;;
8944;SDS011;4507;40.232;29.132;2023-08-06T10:20:48;29.05;;;5.07;;
8944;SDS011;4507;40.232;29.132;2023-08-06T10:23:17;16.73;;;4.30;;
8944;SDS011;4507;40.232;29.132;2023-08-06T10:25:53;19.33;;;4.13;;
8944;SDS011;4507;40.232;29.132;2023-08-06T10:28:33;26.40;;;5.05;;
8944;SDS011;4507;40.232;29.132;2023-08-06T10:31:18;21.67;;;4.82;;
8944;SDS011;4507;40.232;29.132;2023-08-06T10:34:18;43.53;;;6.18;;
8944;SDS011;4507;40.232;29.132;2023-08-06T10:36:54;30.35;;;4.97;;
8944;SDS011;4507;40.232;29.132;2023-08-06T10:39:23;22.45;;;4.30;;
8944;SDS011;4507;40.232;29.132;2023-08-06T10:41:57;27.85;;;5.47;;
8944;SDS011;4507;40.232;29.132;2023-08-06T10:44:26;62.45;;;7.70;;
8944;SDS011;4507;40.232;29.132;2023-08-06T10:50:03;41.50;;;5.25;;
8944;SDS011;4507;40.232;29.132;2023-08-06T10:55:31;32.20;;;4.93;;
8944;SDS011;4507;40.232;29.132;2023-08-06T10:58:00;33.75;;;5.10;;
8944;SDS011;4507;40.232;29.132;2023-08-06T11:00:30;45.17;;;5.55;;
8944;SDS011;4507;40.232;29.132;2023-08-06T11:03:00;40.35;;;5.07;;
8944;SDS011;4507;40.232;29.132;2023-08-06T11:05:32;18.15;;;4.25;;
8944;SDS011;4507;40.232;29.132;2023-08-06T11:08:06;19.92;;;4.55;;
8944;SDS011;4507;40.232;29.132;2023-08-06T11:10:35;27.95;;;4.43;;
8944;SDS011;4507;40.232;29.132;2023-08-06T11:13:16;18.20;;;4.13;;
8944;SDS011;4507;40.232;29.132;2023-08-06T11:15:45;29.05;;;5.05;;
8944;SDS011;4507;40.232;29.132;2023-08-06T11:18:14;35.75;;;4.93;;
8944;SDS011;4507;40.232;29.132;2023-08-06T11:20:44;22.58;;;4.68;;
8944;SDS011;4507;40.232;29.132;2023-08-06T11:23:14;15.35;;;4.13;;
8944;SDS011;4507;40.232;29.132;2023-08-06T11:25:49;17.65;;;4.30;;
8944;SDS011;4507;40.232;29.132;2023-08-06T11:28:25;9.57;;;4.35;;
8944;SDS011;4507;40.232;29.132;2023-08-06T11:30:54;23.10;;;4.50;;
8944;SDS011;4507;40.232;29.132;2023-08-06T11:33:31;12.77;;;4.60;;
8944;SDS011;4507;40.232;29.132;2023-08-06T11:36:09;18.30;;;4.40;;
8944;SDS011;4507;40.232;29.132;2023-08-06T11:38:57;24.17;;;5.05;;
8944;SDS011;4507;40.232;29.132;2023-08-06T11:41:28;29.20;;;5.10;;
8944;SDS011;4507;40.232;29.132;2023-08-06T11:44:12;67.75;;;7.30;;
8944;SDS011;4507;40.232;29.132;2023-08-06T11:46:50;27.80;;;5.43;;
8944;SDS011;4507;40.232;29.132;2023-08-06T11:49:43;72.95;;;8.40;;
8944;SDS011;4507;40.232;29.132;2023-08-06T11:52:28;58.38;;;8.85;;
8944;SDS011;4507;40.232;29.132;2023-08-06T11:55:04;26.40;;;5.47;;
8944;SDS011;4507;40.232;29.132;2023-08-06T11:57:43;41.17;;;6.72;;
8944;SDS011;4507;40.232;29.132;2023-08-06T12:00:23;29.05;;;6.25;;
8944;SDS011;4507;40.232;29.132;2023-08-06T12:02:54;18.27;;;5.50;;
8944;SDS011;4507;40.232;29.132;2023-08-06T12:05:32;16.13;;;5.38;;
8944;SDS011;4507;40.232;29.132;2023-08-06T12:08:03;25.73;;;6.03;;
8944;SDS011;4507;40.232;29.132;2023-08-06T12:10:34;38.95;;;6.63;;
8944;SDS011;4507;40.232;29.132;2023-08-06T12:13:16;163.55;;;12.85;;
8944;SDS011;4507;40.232;29.132;2023-08-06T12:15:53;64.00;;;8.52;;
8944;SDS011;4507;40.232;29.132;2023-08-06T12:18:31;83.03;;;8.68;;
8944;SDS011;4507;40.232;29.132;2023-08-06T12:21:47;179.48;;;13.65;;
8944;SDS011;4507;40.232;29.132;2023-08-06T12:24:39;102.18;;;8.40;;
8944;SDS011;4507;40.232;29.132;2023-08-06T12:27:22;86.90;;;7.05;;
8944;SDS011;4507;40.232;29.132;2023-08-06T12:30:16;34.22;;;5.75;;
8944;SDS011;4507;40.232;29.132;2023-08-06T12:32:51;31.27;;;5.60;;
8944;SDS011;4507;40.232;29.132;2023-08-06T12:35:22;33.58;;;5.38;;
8944;SDS011;4507;40.232;29.132;2023-08-06T12:38:03;47.47;;;5.80;;
8944;SDS011;4507;40.232;29.132;2023-08-06T12:40:58;30.30;;;4.85;;
8944;SDS011;4507;40.232;29.132;2023-08-06T12:43:33;35.20;;;5.30;;
8944;SDS011;4507;40.232;29.132;2023-08-06T12:46:09;28.33;;;4.93;;
8944;SDS011;4507;40.232;29.132;2023-08-06T12:48:41;27.05;;;5.03;;
8944;SDS011;4507;40.232;29.132;2023-08-06T12:51:16;32.13;;;4.85;;
8944;SDS011;4507;40.232;29.132;2023-08-06T12:53:51;17.38;;;4.32;;
8944;SDS011;4507;40.232;29.132;2023-08-06T12:56:37;34.30;;;5.45;;
8944;SDS011;4507;40.232;29.132;2023-08-06T12:59:16;40.95;;;4.95;;
8944;SDS011;4507;40.232;29.132;2023-08-06T13:01:46;39.38;;;5.53;;
8944;SDS011;4507;40.232;29.132;2023-08-06T13:04:18;51.67;;;5.78;;
8944;SDS011;4507;40.232;29.132;2023-08-06T13:06:54;33.88;;;4.85;;
8944;SDS011;4507;40.232;29.132;2023-08-06T13:09:25;27.23;;;4.43;;
8944;SDS011;4507;40.232;29.132;2023-08-06T13:15:36;52.75;;;6.47;;
8944;SDS011;4507;40.232;29.132;2023-08-06T13:18:10;53.80;;;6.25;;
8944;SDS011;4507;40.232;29.132;2023-08-06T13:20:39;46.72;;;5.82;;
8944;SDS011;4507;40.232;29.132;2023-08-06T13:23:09;56.47;;;6.00;;
8944;SDS011;4507;40.232;29.132;2023-08-06T13:25:47;37.00;;;5.10;;
8944;SDS011;4507;40.232;29.132;2023-08-06T13:28:16;36.95;;;4.70;;
8944;SDS011;4507;40.232;29.132;2023-08-06T13:30:47;49.53;;;5.93;;
8944;SDS011;4507;40.232;29.132;2023-08-06T13:33:16;27.48;;;5.20;;
8944;SDS011;4507;40.232;29.132;2023-08-06T13:35:45;28.02;;;4.47;;
8944;SDS011;4507;40.232;29.132;2023-08-06T13:41:59;48.38;;;5.68;;
8944;SDS011;4507;40.232;29.132;2023-08-06T13:44:28;40.40;;;4.70;;
8944;SDS011;4507;40.232;29.132;2023-08-06T13:46:59;28.88;;;4.50;;
8944;SDS011;4507;40.232;29.132;2023-08-06T13:49:28;51.35;;;5.35;;
8944;SDS011;4507;40.232;29.132;2023-08-06T13:51:59;25.10;;;4.35;;
8944;SDS011;4507;40.232;29.132;2023-08-06T13:54:47;22.88;;;5.35;;
8944;SDS011;4507;40.232;29.132;2023-08-06T13:57:16;36.28;;;4.53;;
8944;SDS011;4507;40.232;29.132;2023-08-06T13:59:45;38.47;;;5.90;;
8944;SDS011;4507;40.232;29.132;2023-08-06T14:02:17;21.95;;;4.80;;
8944;SDS011;4507;40.232;29.132;2023-08-06T14:04:46;26.88;;;4.45;;
8944;SDS011;4507;40.232;29.132;2023-08-06T14:07:17;47.70;;;6.28;;
8944;SDS011;4507;40.232;29.132;2023-08-06T14:09:53;23.58;;;4.90;;
8944;SDS011;4507;40.232;29.132;2023-08-06T14:12:23;28.95;;;5.03;;
8944;SDS011;4507;40.232;29.132;2023-08-06T14:14:53;40.88;;;6.05;;
8944;SDS011;4507;40.232;29.132;2023-08-06T14:17:27;28.23;;;6.07;;
8944;SDS011;4507;40.232;29.132;2023-08-06T14:19:56;45.38;;;7.50;;
8944;SDS011;4507;40.232;29.132;2023-08-06T14:22:26;118.93;;;9.23;;
8944;SDS011;4507;40.232;29.132;2023-08-06T14:24:57;39.30;;;6.05;;
8944;SDS011;4507;40.232;29.132;2023-08-06T14:27:26;36.67;;;4.82;;
8944;SDS011;4507;40.232;29.132;2023-08-06T14:29:56;19.60;;;4.85;;
8944;SDS011;4507;40.232;29.132;2023-08-06T14:32:26;22.05;;;4.80;;
8944;SDS011;4507;40.232;29.132;2023-08-06T14:34:56;19.92;;;5.00;;
8944;SDS011;4507;40.232;29.132;2023-08-06T14:37:26;45.80;;;5.95;;
8944;SDS011;4507;40.232;29.132;2023-08-06T14:39:55;31.65;;;4.80;;
8944;SDS011;4507;40.232;29.132;2023-08-06T14:42:24;44.33;;;5.85;;
8944;SDS011;4507;40.232;29.132;2023-08-06T14:44:54;52.40;;;6.38;;
8944;SDS011;4507;40.232;29.132;2023-08-06T14:47:23;20.33;;;4.75;;
8944;SDS011;4507;40.232;29.132;2023-08-06T14:49:53;36.33;;;4.90;;
8944;SDS011;4507;40.232;29.132;2023-08-06T14:52:22;23.25;;;4.35;;
8944;SDS011;4507;40.232;29.132;2023-08-06T14:54:51;41.03;;;5.65;;
8944;SDS011;4507;40.232;29.132;2023-08-06T14:57:22;11.65;;;4.00;;
8944;SDS011;4507;40.232;29.132;2023-08-06T14:59:54;13.20;;;3.97;;
8944;SDS011;4507;40.232;29.132;2023-08-06T15:02:23;17.13;;;4.30;;
8944;SDS011;4507;40.232;29.132;2023-08-06T15:04:55;20.83;;;4.13;;
8944;SDS011;4507;40.232;29.132;2023-08-06T15:07:24;27.43;;;4.67;;
8944;SDS011;4507;40.232;29.132;2023-08-06T15:13:54;17.10;;;3.67;;
8944;SDS011;4507;40.232;29.132;2023-08-06T15:16:31;23.30;;;4.10;;
8944;SDS011;4507;40.232;29.132;2023-08-06T15:19:01;18.83;;;4.30;;
8944;SDS011;4507;40.232;29.132;2023-08-06T15:21:31;14.90;;;3.40;;
8944;SDS011;4507;40.232;29.132;2023-08-06T15:24:00;67.57;;;7.40;;
8944;SDS011;4507;40.232;29.132;2023-08-06T15:26:29;27.43;;;4.30;;
8944;SDS011;4507;40.232;29.132;2023-08-06T15:28:58;26.23;;;5.20;;
8944;SDS011;4507;40.232;29.132;2023-08-06T15:34:15;22.13;;;3.70;;
8944;SDS011;4507;40.232;29.132;2023-08-06T15:37:03;11.43;;;3.53;;
8944;SDS011;4507;40.232;29.132;2023-08-06T15:39:33;15.13;;;4.03;;
8944;SDS011;4507;40.232;29.132;2023-08-06T15:42:02;11.30;;;3.73;;
8944;SDS011;4507;40.232;29.132;2023-08-06T15:44:35;19.00;;;3.77;;
8944;SDS011;4507;40.232;29.132;2023-08-06T15:47:09;30.30;;;4.30;;
8944;SDS011;4507;40.232;29.132;2023-08-06T15:49:38;10.23;;;3.27;;
8944;SDS011;4507;40.232;29.132;2023-08-06T15:52:11;10.03;;;3.40;;
8944;SDS011;4507;40.232;29.132;2023-08-06T15:54:46;11.43;;;3.43;;
8944;SDS011;4507;40.232;29.132;2023-08-06T15:57:16;9.47;;;3.47;;
8944;SDS011;4507;40.232;29.132;2023-08-06T15:59:45;12.13;;;3.33;;
8944;SDS011;4507;40.232;29.132;2023-08-06T16:02:14;10.37;;;3.17;;
8944;SDS011;4507;40.232;29.132;2023-08-06T16:04:43;10.23;;;3.20;;
8944;SDS011;4507;40.232;29.132;2023-08-06T16:07:13;21.77;;;4.10;;
8944;SDS011;4507;40.232;29.132;2023-08-06T16:09:42;12.60;;;3.33;;
8944;SDS011;4507;40.232;29.132;2023-08-06T16:12:11;11.67;;;3.33;;
8944;SDS011;4507;40.232;29.132;2023-08-06T16:14:41;7.47;;;3.50;;
8944;SDS011;4507;40.232;29.132;2023-08-06T16:17:10;19.70;;;3.63;;
8944;SDS011;4507;40.232;29.132;2023-08-06T16:19:40;13.53;;;3.50;;
8944;SDS011;4507;40.232;29.132;2023-08-06T16:22:09;17.53;;;3.20;;
8944;SDS011;4507;40.232;29.132;2023-08-06T16:24:40;14.73;;;3.67;;
8944;SDS011;4507;40.232;29.132;2023-08-06T16:27:09;12.43;;;3.27;;
8944;SDS011;4507;40.232;29.132;2023-08-06T16:29:38;10.63;;;3.70;;
8944;SDS011;4507;40.232;29.132;2023-08-06T16:32:07;12.60;;;3.83;;
8944;SDS011;4507;40.232;29.132;2023-08-06T16:34:37;15.97;;;3.93;;
8944;SDS011;4507;40.232;29.132;2023-08-06T16:37:06;10.70;;;3.97;;
8944;SDS011;4507;40.232;29.132;2023-08-06T16:39:35;13.00;;;3.80;;
8944;SDS011;4507;40.232;29.132;2023-08-06T16:42:06;10.67;;;3.43;;
8944;SDS011;4507;40.232;29.132;2023-08-06T16:44:38;12.33;;;3.17;;